sensor_id;sensor_type;location;lat;lon;timestamp;pressure;altitude;pressure_sealevel;temperature;humidity
48644;BME280;34928;37.302;-121.984;2023-08-06T00:06:12;100761.0;;;28.02;26.23
48644;BME280;34928;37.302;-121.984;2023-08-06T00:16:17;100763.0;;;27.90;26.02
48644;BME280;34928;37.302;-121.984;2023-08-06T00:26:23;100763.0;;;28.24;25.41
48644;BME280;34928;37.302;-121.984;2023-08-06T00:36:28;100762.0;;;27.85;25.71
48644;BME280;34928;37.302;-121.984;2023-08-06T00:46:33;100758.0;;;27.78;25.78
48644;BME280;34928;37.302;-121.984;2023-08-06T00:56:37;100758.0;;;28.22;25.35
48644;BME280;34928;37.302;-121.984;2023-08-06T01:06:47;100756.0;;;29.41;24.76
48644;BME280;34928;37.302;-121.984;2023-08-06T01:16:53;100748.0;;;31.50;23.61
48644;BME280;34928;37.302;-121.984;2023-08-06T01:27:02;100743.0;;;31.83;23.23
48644;BME280;34928;37.302;-121.984;2023-08-06T01:37:07;100743.0;;;32.12;23.25
48644;BME280;34928;37.302;-121.984;2023-08-06T01:47:13;100741.0;;;32.19;23.37
48644;BME280;34928;37.302;-121.984;2023-08-06T01:57:18;100744.0;;;32.35;23.50
48644;BME280;34928;37.302;-121.984;2023-08-06T02:07:23;100748.0;;;32.79;23.60
48644;BME280;34928;37.302;-121.984;2023-08-06T02:17:28;100764.0;;;32.85;23.83
48644;BME280;34928;37.302;-121.984;2023-08-06T02:27:33;100778.0;;;33.15;23.86
48644;BME280;34928;37.302;-121.984;2023-08-06T02:37:38;100779.0;;;33.03;23.96
48644;BME280;34928;37.302;-121.984;2023-08-06T02:47:43;100791.0;;;33.24;23.96
48644;BME280;34928;37.302;-121.984;2023-08-06T02:57:48;100796.0;;;33.00;24.32
48644;BME280;34928;37.302;-121.984;2023-08-06T03:07:53;100805.0;;;31.81;27.32
48644;BME280;34928;37.302;-121.984;2023-08-06T03:17:58;100814.0;;;31.30;28.50
48644;BME280;34928;37.302;-121.984;2023-08-06T03:28:02;100815.0;;;31.07;28.93
48644;BME280;34928;37.302;-121.984;2023-08-06T03:38:08;100824.0;;;30.98;29.73
48644;BME280;34928;37.302;-121.984;2023-08-06T03:48:13;100848.0;;;31.10;29.47
48644;BME280;34928;37.302;-121.984;2023-08-06T03:58:18;100859.0;;;30.56;29.68
48644;BME280;34928;37.302;-121.984;2023-08-06T04:08:23;100872.0;;;30.40;30.01
48644;BME280;34928;37.302;-121.984;2023-08-06T04:18:28;100878.0;;;30.28;30.27
48644;BME280;34928;37.302;-121.984;2023-08-06T04:28:33;100883.0;;;29.01;31.84
48644;BME280;34928;37.302;-121.984;2023-08-06T04:38:38;100892.0;;;28.44;32.74
48644;BME280;34928;37.302;-121.984;2023-08-06T04:48:43;100900.0;;;28.62;32.88
48644;BME280;34928;37.302;-121.984;2023-08-06T04:58:47;100899.0;;;27.96;33.74
48644;BME280;34928;37.302;-121.984;2023-08-06T05:08:53;100902.0;;;28.39;33.55
48644;BME280;34928;37.302;-121.984;2023-08-06T05:18:58;100902.0;;;28.25;33.67
48644;BME280;34928;37.302;-121.984;2023-08-06T05:29:03;100897.0;;;28.64;32.47
48644;BME280;34928;37.302;-121.984;2023-08-06T05:39:08;100894.0;;;27.82;33.15
48644;BME280;34928;37.302;-121.984;2023-08-06T05:49:13;100895.0;;;27.50;32.97
48644;BME280;34928;37.302;-121.984;2023-08-06T05:59:18;100894.0;;;27.98;32.74
48644;BME280;34928;37.302;-121.984;2023-08-06T06:09:23;100884.0;;;26.97;33.96
48644;BME280;34928;37.302;-121.984;2023-08-06T06:19:28;100886.0;;;27.72;33.37
48644;BME280;34928;37.302;-121.984;2023-08-06T06:29:33;100883.0;;;29.56;30.51
48644;BME280;34928;37.302;-121.984;2023-08-06T06:39:38;100881.0;;;30.19;29.71
48644;BME280;34928;37.302;-121.984;2023-08-06T06:49:43;100875.0;;;30.33;29.21
48644;BME280;34928;37.302;-121.984;2023-08-06T06:59:47;100886.0;;;30.31;28.98
48644;BME280;34928;37.302;-121.984;2023-08-06T07:09:53;100883.0;;;30.41;28.83
48644;BME280;34928;37.302;-121.984;2023-08-06T07:19:58;100884.0;;;30.35;28.89
48644;BME280;34928;37.302;-121.984;2023-08-06T07:30:03;100878.0;;;30.22;28.99
48644;BME280;34928;37.302;-121.984;2023-08-06T07:40:08;100873.0;;;29.93;28.97
48644;BME280;34928;37.302;-121.984;2023-08-06T07:50:13;100869.0;;;30.47;28.87
48644;BME280;34928;37.302;-121.984;2023-08-06T08:00:17;100868.0;;;30.49;28.86
48644;BME280;34928;37.302;-121.984;2023-08-06T08:10:23;100871.0;;;30.15;28.97
48644;BME280;34928;37.302;-121.984;2023-08-06T08:20:27;100869.0;;;30.11;29.02
48644;BME280;34928;37.302;-121.984;2023-08-06T08:30:33;100870.0;;;30.15;29.18
48644;BME280;34928;37.302;-121.984;2023-08-06T08:40:44;100858.0;;;29.81;29.53
48644;BME280;34928;37.302;-121.984;2023-08-06T08:50:49;100861.0;;;29.64;29.72
48644;BME280;34928;37.302;-121.984;2023-08-06T09:00:54;100850.0;;;29.44;29.77
48644;BME280;34928;37.302;-121.984;2023-08-06T09:10:58;100852.0;;;29.37;29.83
48644;BME280;34928;37.302;-121.984;2023-08-06T09:21:03;100854.0;;;29.46;29.63
48644;BME280;34928;37.302;-121.984;2023-08-06T09:31:08;100845.0;;;29.56;29.66
48644;BME280;34928;37.302;-121.984;2023-08-06T09:41:27;100846.0;;;29.36;29.70
48644;BME280;34928;37.302;-121.984;2023-08-06T09:51:32;100846.0;;;29.51;29.66
48644;BME280;34928;37.302;-121.984;2023-08-06T10:01:38;100842.0;;;29.27;29.64
48644;BME280;34928;37.302;-121.984;2023-08-06T10:11:43;100843.0;;;29.34;29.66
48644;BME280;34928;37.302;-121.984;2023-08-06T10:32:12;100849.0;;;28.72;29.89
48644;BME280;34928;37.302;-121.984;2023-08-06T10:42:21;100844.0;;;28.82;29.96
48644;BME280;34928;37.302;-121.984;2023-08-06T10:52:27;100842.0;;;28.79;29.93
48644;BME280;34928;37.302;-121.984;2023-08-06T11:02:34;100842.0;;;28.80;29.85
48644;BME280;34928;37.302;-121.984;2023-08-06T11:12:43;100831.0;;;28.69;29.93
48644;BME280;34928;37.302;-121.984;2023-08-06T11:22:47;100818.0;;;28.71;29.84
48644;BME280;34928;37.302;-121.984;2023-08-06T11:32:53;100808.0;;;28.63;29.86
48644;BME280;34928;37.302;-121.984;2023-08-06T11:43:00;100809.0;;;28.55;29.91
48644;BME280;34928;37.302;-121.984;2023-08-06T11:53:04;100811.0;;;28.46;29.93
48644;BME280;34928;37.302;-121.984;2023-08-06T12:03:07;100821.0;;;28.59;30.01
48644;BME280;34928;37.302;-121.984;2023-08-06T12:13:13;100819.0;;;28.25;29.98
48644;BME280;34928;37.302;-121.984;2023-08-06T12:23:17;100823.0;;;28.35;29.78
48644;BME280;34928;37.302;-121.984;2023-08-06T12:33:23;100836.0;;;28.26;29.79
48644;BME280;34928;37.302;-121.984;2023-08-06T12:43:28;100842.0;;;28.11;29.93
48644;BME280;34928;37.302;-121.984;2023-08-06T12:53:32;100866.0;;;28.40;29.83
48644;BME280;34928;37.302;-121.984;2023-08-06T13:03:37;100873.0;;;28.31;29.93
48644;BME280;34928;37.302;-121.984;2023-08-06T13:13:44;100877.0;;;28.32;29.82
48644;BME280;34928;37.302;-121.984;2023-08-06T13:23:48;100885.0;;;28.08;30.00
48644;BME280;34928;37.302;-121.984;2023-08-06T13:33:53;100886.0;;;27.99;30.01
48644;BME280;34928;37.302;-121.984;2023-08-06T13:43:58;100875.0;;;28.04;29.90
48644;BME280;34928;37.302;-121.984;2023-08-06T13:54:03;100895.0;;;28.11;29.78
48644;BME280;34928;37.302;-121.984;2023-08-06T14:04:07;100903.0;;;28.22;29.23
48644;BME280;34928;37.302;-121.984;2023-08-06T14:14:13;100906.0;;;24.98;35.08
48644;BME280;34928;37.302;-121.984;2023-08-06T14:24:18;100906.0;;;24.90;36.82
48644;BME280;34928;37.302;-121.984;2023-08-06T14:34:22;100921.0;;;25.29;38.09
48644;BME280;34928;37.302;-121.984;2023-08-06T14:44:27;100926.0;;;25.29;38.11
48644;BME280;34928;37.302;-121.984;2023-08-06T14:54:32;100932.0;;;25.05;39.11
48644;BME280;34928;37.302;-121.984;2023-08-06T15:04:38;100945.0;;;25.05;39.09
48644;BME280;34928;37.302;-121.984;2023-08-06T15:14:43;100954.0;;;23.97;40.57
48644;BME280;34928;37.302;-121.984;2023-08-06T15:24:48;100956.0;;;24.69;40.16
48644;BME280;34928;37.302;-121.984;2023-08-06T15:34:53;100953.0;;;24.91;39.95
48644;BME280;34928;37.302;-121.984;2023-08-06T15:44:58;100955.0;;;24.21;41.93
48644;BME280;34928;37.302;-121.984;2023-08-06T15:55:04;100955.0;;;23.95;41.61
48644;BME280;34928;37.302;-121.984;2023-08-06T16:05:07;100953.0;;;24.34;41.38
48644;BME280;34928;37.302;-121.984;2023-08-06T16:15:13;100961.0;;;25.13;40.17
48644;BME280;34928;37.302;-121.984;2023-08-06T16:25:18;100960.0;;;24.91;40.22
48644;BME280;34928;37.302;-121.984;2023-08-06T16:35:22;100947.0;;;25.35;39.48
48644;BME280;34928;37.302;-121.984;2023-08-06T16:45:29;100950.0;;;25.68;38.50
48644;BME280;34928;37.302;-121.984;2023-08-06T16:55:33;100954.0;;;28.91;33.55
48644;BME280;34928;37.302;-121.984;2023-08-06T17:05:39;100959.0;;;29.32;32.28
48644;BME280;34928;37.302;-121.984;2023-08-06T17:15:43;100953.0;;;29.71;31.90
48644;BME280;34928;37.302;-121.984;2023-08-06T17:25:48;100964.0;;;29.89;31.51
48644;BME280;34928;37.302;-121.984;2023-08-06T17:35:54;100968.0;;;29.86;31.67
48644;BME280;34928;37.302;-121.984;2023-08-06T17:45:59;100969.0;;;29.80;31.55
48644;BME280;34928;37.302;-121.984;2023-08-06T17:56:04;100978.0;;;30.05;31.57
48644;BME280;34928;37.302;-121.984;2023-08-06T18:06:07;100983.0;;;30.05;31.72
48644;BME280;34928;37.302;-121.984;2023-08-06T18:16:12;100975.0;;;30.21;31.48
48644;BME280;34928;37.302;-121.984;2023-08-06T18:26:18;100968.0;;;30.44;31.26
48644;BME280;34928;37.302;-121.984;2023-08-06T18:36:23;100963.0;;;30.15;30.86
48644;BME280;34928;37.302;-121.984;2023-08-06T18:46:28;100968.0;;;30.46;30.72
48644;BME280;34928;37.302;-121.984;2023-08-06T18:56:33;100965.0;;;30.18;30.60
48644;BME280;34928;37.302;-121.984;2023-08-06T19:06:38;100954.0;;;30.30;29.67
48644;BME280;34928;37.302;-121.984;2023-08-06T19:16:43;100948.0;;;30.46;29.68
48644;BME280;34928;37.302;-121.984;2023-08-06T19:26:48;100939.0;;;30.51;28.86
48644;BME280;34928;37.302;-121.984;2023-08-06T19:36:53;100933.0;;;30.86;28.68
48644;BME280;34928;37.302;-121.984;2023-08-06T19:46:58;100927.0;;;30.43;27.91
48644;BME280;34928;37.302;-121.984;2023-08-06T19:57:02;100915.0;;;30.10;26.81
48644;BME280;34928;37.302;-121.984;2023-08-06T20:07:07;100905.0;;;30.19;26.66
48644;BME280;34928;37.302;-121.984;2023-08-06T20:17:13;100880.0;;;29.79;26.14
48644;BME280;34928;37.302;-121.984;2023-08-06T20:27:17;100862.0;;;29.74;26.26
48644;BME280;34928;37.302;-121.984;2023-08-06T20:37:23;100855.0;;;29.76;25.93
48644;BME280;34928;37.302;-121.984;2023-08-06T20:47:28;100847.0;;;29.91;25.68
48644;BME280;34928;37.302;-121.984;2023-08-06T20:57:33;100838.0;;;30.23;25.74
48644;BME280;34928;37.302;-121.984;2023-08-06T21:07:38;100830.0;;;30.00;25.36
48644;BME280;34928;37.302;-121.984;2023-08-06T21:17:43;100824.0;;;29.80;25.49
48644;BME280;34928;37.302;-121.984;2023-08-06T21:27:48;100813.0;;;30.14;25.12
48644;BME280;34928;37.302;-121.984;2023-08-06T21:37:53;100805.0;;;29.88;25.11
48644;BME280;34928;37.302;-121.984;2023-08-06T21:47:58;100799.0;;;29.99;24.77
48644;BME280;34928;37.302;-121.984;2023-08-06T21:58:02;100781.0;;;30.21;24.96
48644;BME280;34928;37.302;-121.984;2023-08-06T22:08:08;100767.0;;;29.86;25.20
48644;BME280;34928;37.302;-121.984;2023-08-06T22:18:13;100756.0;;;29.95;25.21
48644;BME280;34928;37.302;-121.984;2023-08-06T22:28:18;100747.0;;;30.01;25.20
48644;BME280;34928;37.302;-121.984;2023-08-06T22:38:23;100739.0;;;30.30;25.19
48644;BME280;34928;37.302;-121.984;2023-08-06T22:48:27;100734.0;;;30.29;25.17
48644;BME280;34928;37.302;-121.984;2023-08-06T22:58:33;100729.0;;;30.08;25.14
48644;BME280;34928;37.302;-121.984;2023-08-06T23:08:37;100722.0;;;30.27;24.91
48644;BME280;34928;37.302;-121.984;2023-08-06T23:18:43;100715.0;;;30.24;24.70
48644;BME280;34928;37.302;-121.984;2023-08-06T23:28:48;100717.0;;;30.22;24.83
48644;BME280;34928;37.302;-121.984;2023-08-06T23:38:52;100704.0;;;30.37;24.91
48644;BME280;34928;37.302;-121.984;2023-08-06T23:48:58;100703.0;;;30.49;24.72
48644;BME280;34928;37.302;-121.984;2023-08-06T23:59:04;100703.0;;;30.26;24.88
